sensor_id;sensor_type;location;lat;lon;timestamp;P1;durP1;ratioP1;P2;durP2;ratioP2
68593;SDS011;55563;52.416;13.548;2023-07-24T00:00:34;2.22;;;1.40;;
68593;SDS011;55563;52.416;13.548;2023-07-24T00:02:35;1.30;;;1.20;;
68593;SDS011;55563;52.416;13.548;2023-07-24T00:04:36;1.63;;;1.30;;
68593;SDS011;55563;52.416;13.548;2023-07-24T00:06:36;2.00;;;1.40;;
68593;SDS011;55563;52.416;13.548;2023-07-24T00:08:37;2.28;;;1.25;;
68593;SDS011;55563;52.416;13.548;2023-07-24T00:10:38;2.28;;;1.35;;
68593;SDS011;55563;52.416;13.548;2023-07-24T00:14:39;1.30;;;1.10;;
68593;SDS011;55563;52.416;13.548;2023-07-24T00:16:40;1.83;;;1.42;;
68593;SDS011;55563;52.416;13.548;2023-07-24T00:18:41;1.98;;;1.17;;
68593;SDS011;55563;52.416;13.548;2023-07-24T00:20:42;1.50;;;1.30;;
68593;SDS011;55563;52.416;13.548;2023-07-24T00:22:42;2.78;;;1.45;;
68593;SDS011;55563;52.416;13.548;2023-07-24T00:26:43;2.42;;;1.20;;
68593;SDS011;55563;52.416;13.548;2023-07-24T00:30:44;1.52;;;1.42;;
68593;SDS011;55563;52.416;13.548;2023-07-24T00:34:45;1.92;;;1.25;;
68593;SDS011;55563;52.416;13.548;2023-07-24T00:36:46;1.73;;;1.30;;
68593;SDS011;55563;52.416;13.548;2023-07-24T00:38:47;1.55;;;1.20;;
68593;SDS011;55563;52.416;13.548;2023-07-24T00:40:48;2.13;;;1.30;;
68593;SDS011;55563;52.416;13.548;2023-07-24T00:42:50;2.05;;;1.40;;
68593;SDS011;55563;52.416;13.548;2023-07-24T00:46:51;2.05;;;1.35;;
68593;SDS011;55563;52.416;13.548;2023-07-24T00:48:54;1.67;;;1.20;;
68593;SDS011;55563;52.416;13.548;2023-07-24T00:52:56;1.90;;;1.33;;
68593;SDS011;55563;52.416;13.548;2023-07-24T00:54:58;2.67;;;1.40;;
68593;SDS011;55563;52.416;13.548;2023-07-24T00:58:59;1.35;;;1.20;;
68593;SDS011;55563;52.416;13.548;2023-07-24T01:01:01;1.83;;;1.38;;
68593;SDS011;55563;52.416;13.548;2023-07-24T01:03:01;1.83;;;1.30;;
68593;SDS011;55563;52.416;13.548;2023-07-24T01:05:02;1.83;;;1.40;;
68593;SDS011;55563;52.416;13.548;2023-07-24T01:07:04;1.77;;;1.38;;
68593;SDS011;55563;52.416;13.548;2023-07-24T01:09:05;3.35;;;1.77;;
68593;SDS011;55563;52.416;13.548;2023-07-24T01:11:10;2.78;;;1.30;;
68593;SDS011;55563;52.416;13.548;2023-07-24T01:13:19;1.65;;;1.23;;
68593;SDS011;55563;52.416;13.548;2023-07-24T01:15:28;2.45;;;1.30;;
68593;SDS011;55563;52.416;13.548;2023-07-24T01:17:33;1.70;;;1.30;;
68593;SDS011;55563;52.416;13.548;2023-07-24T01:19:47;1.75;;;1.45;;
68593;SDS011;55563;52.416;13.548;2023-07-24T01:21:57;2.63;;;1.13;;
68593;SDS011;55563;52.416;13.548;2023-07-24T01:24:09;1.77;;;1.20;;
68593;SDS011;55563;52.416;13.548;2023-07-24T01:26:21;2.08;;;1.42;;
68593;SDS011;55563;52.416;13.548;2023-07-24T01:28:25;2.53;;;1.40;;
68593;SDS011;55563;52.416;13.548;2023-07-24T01:30:27;1.52;;;1.20;;
68593;SDS011;55563;52.416;13.548;2023-07-24T01:32:27;2.03;;;1.45;;
68593;SDS011;55563;52.416;13.548;2023-07-24T01:34:28;3.30;;;1.50;;
68593;SDS011;55563;52.416;13.548;2023-07-24T01:36:28;4.28;;;1.40;;
68593;SDS011;55563;52.416;13.548;2023-07-24T01:38:30;2.42;;;1.50;;
68593;SDS011;55563;52.416;13.548;2023-07-24T01:40:33;1.88;;;1.30;;
68593;SDS011;55563;52.416;13.548;2023-07-24T01:42:34;2.28;;;1.60;;
68593;SDS011;55563;52.416;13.548;2023-07-24T01:44:36;1.67;;;1.35;;
68593;SDS011;55563;52.416;13.548;2023-07-24T01:48:37;1.90;;;1.27;;
68593;SDS011;55563;52.416;13.548;2023-07-24T01:50:37;3.30;;;1.38;;
68593;SDS011;55563;52.416;13.548;2023-07-24T01:52:38;2.35;;;1.63;;
68593;SDS011;55563;52.416;13.548;2023-07-24T01:54:39;2.83;;;1.40;;
68593;SDS011;55563;52.416;13.548;2023-07-24T01:56:40;2.97;;;1.45;;
68593;SDS011;55563;52.416;13.548;2023-07-24T01:58:40;1.50;;;1.30;;
68593;SDS011;55563;52.416;13.548;2023-07-24T02:00:41;1.75;;;1.15;;
68593;SDS011;55563;52.416;13.548;2023-07-24T02:02:55;1.77;;;1.38;;
68593;SDS011;55563;52.416;13.548;2023-07-24T02:04:56;1.77;;;1.40;;
68593;SDS011;55563;52.416;13.548;2023-07-24T02:06:56;2.30;;;1.40;;
68593;SDS011;55563;52.416;13.548;2023-07-24T02:08:57;1.30;;;1.10;;
68593;SDS011;55563;52.416;13.548;2023-07-24T02:10:58;1.52;;;1.40;;
68593;SDS011;55563;52.416;13.548;2023-07-24T02:12:59;2.58;;;1.42;;
68593;SDS011;55563;52.416;13.548;2023-07-24T02:15:00;1.60;;;1.30;;
68593;SDS011;55563;52.416;13.548;2023-07-24T02:17:01;2.05;;;1.50;;
68593;SDS011;55563;52.416;13.548;2023-07-24T02:21:05;1.92;;;1.23;;
68593;SDS011;55563;52.416;13.548;2023-07-24T02:25:08;1.55;;;1.30;;
68593;SDS011;55563;52.416;13.548;2023-07-24T02:29:12;1.60;;;1.20;;
68593;SDS011;55563;52.416;13.548;2023-07-24T02:33:14;1.48;;;1.10;;
68593;SDS011;55563;52.416;13.548;2023-07-24T02:35:15;1.50;;;1.17;;
68593;SDS011;55563;52.416;13.548;2023-07-24T02:37:20;2.00;;;1.05;;
68593;SDS011;55563;52.416;13.548;2023-07-24T02:39:20;1.42;;;1.17;;
68593;SDS011;55563;52.416;13.548;2023-07-24T02:41:21;1.30;;;1.20;;
68593;SDS011;55563;52.416;13.548;2023-07-24T02:43:22;1.55;;;1.20;;
68593;SDS011;55563;52.416;13.548;2023-07-24T02:45:22;1.95;;;1.20;;
68593;SDS011;55563;52.416;13.548;2023-07-24T02:47:24;1.92;;;1.20;;
68593;SDS011;55563;52.416;13.548;2023-07-24T02:51:25;1.42;;;1.00;;
68593;SDS011;55563;52.416;13.548;2023-07-24T02:53:26;3.30;;;1.00;;
68593;SDS011;55563;52.416;13.548;2023-07-24T02:55:27;1.15;;;1.05;;
68593;SDS011;55563;52.416;13.548;2023-07-24T02:57:27;1.27;;;1.00;;
68593;SDS011;55563;52.416;13.548;2023-07-24T02:59:29;1.25;;;1.15;;
68593;SDS011;55563;52.416;13.548;2023-07-24T03:01:30;2.03;;;1.20;;
68593;SDS011;55563;52.416;13.548;2023-07-24T03:03:31;1.52;;;1.10;;
68593;SDS011;55563;52.416;13.548;2023-07-24T03:05:33;1.25;;;1.10;;
68593;SDS011;55563;52.416;13.548;2023-07-24T03:07:35;1.73;;;1.10;;
68593;SDS011;55563;52.416;13.548;2023-07-24T03:11:36;2.42;;;1.20;;
68593;SDS011;55563;52.416;13.548;2023-07-24T03:13:37;1.45;;;1.02;;
68593;SDS011;55563;52.416;13.548;2023-07-24T03:15:41;1.95;;;1.00;;
68593;SDS011;55563;52.416;13.548;2023-07-24T03:17:41;1.15;;;1.00;;
68593;SDS011;55563;52.416;13.548;2023-07-24T03:19:42;1.15;;;1.02;;
68593;SDS011;55563;52.416;13.548;2023-07-24T03:23:43;2.00;;;1.10;;
68593;SDS011;55563;52.416;13.548;2023-07-24T03:25:44;1.50;;;1.05;;
68593;SDS011;55563;52.416;13.548;2023-07-24T03:27:45;1.90;;;1.10;;
68593;SDS011;55563;52.416;13.548;2023-07-24T03:31:46;1.67;;;1.10;;
68593;SDS011;55563;52.416;13.548;2023-07-24T03:35:48;1.08;;;0.95;;
68593;SDS011;55563;52.416;13.548;2023-07-24T03:39:50;1.35;;;1.13;;
68593;SDS011;55563;52.416;13.548;2023-07-24T03:41:50;1.13;;;1.02;;
68593;SDS011;55563;52.416;13.548;2023-07-24T03:45:53;1.23;;;0.90;;
68593;SDS011;55563;52.416;13.548;2023-07-24T03:49:55;1.15;;;1.05;;
68593;SDS011;55563;52.416;13.548;2023-07-24T03:51:55;1.05;;;0.95;;
68593;SDS011;55563;52.416;13.548;2023-07-24T03:53:56;1.27;;;1.10;;
68593;SDS011;55563;52.416;13.548;2023-07-24T03:55:57;2.42;;;0.90;;
68593;SDS011;55563;52.416;13.548;2023-07-24T03:57:57;1.13;;;0.93;;
68593;SDS011;55563;52.416;13.548;2023-07-24T04:01:59;0.90;;;0.90;;
68593;SDS011;55563;52.416;13.548;2023-07-24T04:03:59;1.20;;;1.00;;
68593;SDS011;55563;52.416;13.548;2023-07-24T04:08:01;1.17;;;1.08;;
68593;SDS011;55563;52.416;13.548;2023-07-24T04:10:03;0.80;;;0.80;;
68593;SDS011;55563;52.416;13.548;2023-07-24T04:12:04;1.08;;;0.90;;
68593;SDS011;55563;52.416;13.548;2023-07-24T04:14:05;1.08;;;0.88;;
68593;SDS011;55563;52.416;13.548;2023-07-24T04:18:06;0.80;;;0.80;;
68593;SDS011;55563;52.416;13.548;2023-07-24T04:22:08;1.20;;;0.88;;
68593;SDS011;55563;52.416;13.548;2023-07-24T04:24:08;0.73;;;0.73;;
68593;SDS011;55563;52.416;13.548;2023-07-24T04:26:09;0.90;;;0.82;;
68593;SDS011;55563;52.416;13.548;2023-07-24T04:28:10;1.00;;;0.73;;
68593;SDS011;55563;52.416;13.548;2023-07-24T04:30:11;1.02;;;0.90;;
68593;SDS011;55563;52.416;13.548;2023-07-24T04:32:12;1.65;;;1.00;;
68593;SDS011;55563;52.416;13.548;2023-07-24T04:36:13;1.55;;;0.70;;
68593;SDS011;55563;52.416;13.548;2023-07-24T04:38:13;0.95;;;0.93;;
68593;SDS011;55563;52.416;13.548;2023-07-24T04:40:14;0.70;;;0.70;;
68593;SDS011;55563;52.416;13.548;2023-07-24T04:44:15;1.25;;;0.73;;
68593;SDS011;55563;52.416;13.548;2023-07-24T04:46:16;1.25;;;0.88;;
68593;SDS011;55563;52.416;13.548;2023-07-24T04:48:17;0.80;;;0.80;;
68593;SDS011;55563;52.416;13.548;2023-07-24T04:52:18;1.40;;;0.73;;
68593;SDS011;55563;52.416;13.548;2023-07-24T04:56:19;0.90;;;0.82;;
68593;SDS011;55563;52.416;13.548;2023-07-24T04:58:20;0.75;;;0.75;;
68593;SDS011;55563;52.416;13.548;2023-07-24T05:02:21;0.88;;;0.88;;
68593;SDS011;55563;52.416;13.548;2023-07-24T05:04:22;0.80;;;0.80;;
68593;SDS011;55563;52.416;13.548;2023-07-24T05:08:23;0.98;;;0.90;;
68593;SDS011;55563;52.416;13.548;2023-07-24T05:10:24;0.80;;;0.80;;
68593;SDS011;55563;52.416;13.548;2023-07-24T05:14:25;0.80;;;0.77;;
68593;SDS011;55563;52.416;13.548;2023-07-24T05:18:27;0.70;;;0.70;;
68593;SDS011;55563;52.416;13.548;2023-07-24T05:20:27;0.70;;;0.70;;
68593;SDS011;55563;52.416;13.548;2023-07-24T05:24:29;1.23;;;0.95;;
68593;SDS011;55563;52.416;13.548;2023-07-24T05:26:29;1.00;;;0.90;;
68593;SDS011;55563;52.416;13.548;2023-07-24T05:28:30;0.90;;;0.90;;
68593;SDS011;55563;52.416;13.548;2023-07-24T05:30:32;0.85;;;0.75;;
68593;SDS011;55563;52.416;13.548;2023-07-24T05:32:33;0.82;;;0.82;;
68593;SDS011;55563;52.416;13.548;2023-07-24T05:36:34;0.93;;;0.82;;
68593;SDS011;55563;52.416;13.548;2023-07-24T05:40:35;0.77;;;0.60;;
68593;SDS011;55563;52.416;13.548;2023-07-24T05:44:41;0.70;;;0.70;;
68593;SDS011;55563;52.416;13.548;2023-07-24T05:48:43;1.75;;;0.70;;
68593;SDS011;55563;52.416;13.548;2023-07-24T05:52:44;0.80;;;0.63;;
68593;SDS011;55563;52.416;13.548;2023-07-24T05:54:44;0.88;;;0.75;;
68593;SDS011;55563;52.416;13.548;2023-07-24T05:56:45;0.80;;;0.70;;
68593;SDS011;55563;52.416;13.548;2023-07-24T06:00:46;1.02;;;0.93;;
68593;SDS011;55563;52.416;13.548;2023-07-24T06:04:48;0.82;;;0.82;;
68593;SDS011;55563;52.416;13.548;2023-07-24T06:08:49;0.70;;;0.70;;
68593;SDS011;55563;52.416;13.548;2023-07-24T06:10:51;0.80;;;0.80;;
68593;SDS011;55563;52.416;13.548;2023-07-24T06:12:52;0.88;;;0.88;;
68593;SDS011;55563;52.416;13.548;2023-07-24T06:14:53;1.75;;;0.90;;
68593;SDS011;55563;52.416;13.548;2023-07-24T06:16:54;0.90;;;0.88;;
68593;SDS011;55563;52.416;13.548;2023-07-24T06:18:54;1.10;;;0.85;;
68593;SDS011;55563;52.416;13.548;2023-07-24T06:20:55;1.10;;;1.00;;
68593;SDS011;55563;52.416;13.548;2023-07-24T06:22:56;1.13;;;1.02;;
68593;SDS011;55563;52.416;13.548;2023-07-24T06:26:57;1.30;;;1.02;;
68593;SDS011;55563;52.416;13.548;2023-07-24T06:28:57;1.05;;;0.95;;
68593;SDS011;55563;52.416;13.548;2023-07-24T06:30:58;1.13;;;1.00;;
68593;SDS011;55563;52.416;13.548;2023-07-24T06:32:59;1.10;;;1.00;;
68593;SDS011;55563;52.416;13.548;2023-07-24T06:34:59;1.60;;;1.23;;
68593;SDS011;55563;52.416;13.548;2023-07-24T06:37:00;1.20;;;1.10;;
68593;SDS011;55563;52.416;13.548;2023-07-24T06:39:01;1.10;;;1.00;;
68593;SDS011;55563;52.416;13.548;2023-07-24T06:41:01;1.35;;;1.25;;
68593;SDS011;55563;52.416;13.548;2023-07-24T06:43:03;1.70;;;1.17;;
68593;SDS011;55563;52.416;13.548;2023-07-24T06:45:04;1.38;;;1.25;;
68593;SDS011;55563;52.416;13.548;2023-07-24T06:47:06;1.10;;;1.00;;
68593;SDS011;55563;52.416;13.548;2023-07-24T06:49:07;0.93;;;0.90;;
68593;SDS011;55563;52.416;13.548;2023-07-24T06:51:08;1.45;;;1.23;;
68593;SDS011;55563;52.416;13.548;2023-07-24T06:53:08;1.90;;;1.23;;
68593;SDS011;55563;52.416;13.548;2023-07-24T06:55:09;1.35;;;1.25;;
68593;SDS011;55563;52.416;13.548;2023-07-24T06:57:09;1.90;;;1.40;;
68593;SDS011;55563;52.416;13.548;2023-07-24T06:59:10;1.23;;;1.13;;
68593;SDS011;55563;52.416;13.548;2023-07-24T07:01:11;1.35;;;1.25;;
68593;SDS011;55563;52.416;13.548;2023-07-24T07:03:11;1.35;;;1.25;;
68593;SDS011;55563;52.416;13.548;2023-07-24T07:05:12;1.90;;;1.52;;
68593;SDS011;55563;52.416;13.548;2023-07-24T07:07:13;1.30;;;1.20;;
68593;SDS011;55563;52.416;13.548;2023-07-24T07:09:13;1.40;;;1.30;;
68593;SDS011;55563;52.416;13.548;2023-07-24T07:11:14;1.27;;;1.17;;
68593;SDS011;55563;52.416;13.548;2023-07-24T07:13:15;1.27;;;1.17;;
68593;SDS011;55563;52.416;13.548;2023-07-24T07:15:15;1.40;;;1.30;;
68593;SDS011;55563;52.416;13.548;2023-07-24T07:17:16;1.38;;;1.27;;
68593;SDS011;55563;52.416;13.548;2023-07-24T07:19:17;1.30;;;1.20;;
68593;SDS011;55563;52.416;13.548;2023-07-24T07:21:17;1.58;;;1.48;;
68593;SDS011;55563;52.416;13.548;2023-07-24T07:23:18;1.60;;;1.42;;
68593;SDS011;55563;52.416;13.548;2023-07-24T07:25:20;1.42;;;1.33;;
68593;SDS011;55563;52.416;13.548;2023-07-24T07:27:20;1.70;;;1.60;;
68593;SDS011;55563;52.416;13.548;2023-07-24T07:29:21;2.35;;;1.52;;
68593;SDS011;55563;52.416;13.548;2023-07-24T07:31:22;2.17;;;1.30;;
68593;SDS011;55563;52.416;13.548;2023-07-24T07:33:22;1.52;;;1.42;;
68593;SDS011;55563;52.416;13.548;2023-07-24T07:35:24;1.38;;;1.27;;
68593;SDS011;55563;52.416;13.548;2023-07-24T07:37:24;1.52;;;1.42;;
68593;SDS011;55563;52.416;13.548;2023-07-24T07:39:25;1.35;;;1.25;;
68593;SDS011;55563;52.416;13.548;2023-07-24T07:41:25;1.27;;;1.13;;
68593;SDS011;55563;52.416;13.548;2023-07-24T07:43:26;2.08;;;1.20;;
68593;SDS011;55563;52.416;13.548;2023-07-24T07:45:27;1.40;;;1.05;;
68593;SDS011;55563;52.416;13.548;2023-07-24T07:47:28;1.33;;;1.23;;
68593;SDS011;55563;52.416;13.548;2023-07-24T07:49:29;1.23;;;1.13;;
68593;SDS011;55563;52.416;13.548;2023-07-24T07:51:29;1.23;;;1.13;;
68593;SDS011;55563;52.416;13.548;2023-07-24T07:53:30;1.50;;;1.20;;
68593;SDS011;55563;52.416;13.548;2023-07-24T07:55:32;1.88;;;1.38;;
68593;SDS011;55563;52.416;13.548;2023-07-24T07:57:34;1.50;;;1.23;;
68593;SDS011;55563;52.416;13.548;2023-07-24T07:59:36;1.55;;;1.33;;
68593;SDS011;55563;52.416;13.548;2023-07-24T08:01:37;1.35;;;1.25;;
68593;SDS011;55563;52.416;13.548;2023-07-24T08:03:39;1.10;;;1.00;;
68593;SDS011;55563;52.416;13.548;2023-07-24T08:05:40;1.13;;;0.95;;
68593;SDS011;55563;52.416;13.548;2023-07-24T08:07:41;1.27;;;1.17;;
68593;SDS011;55563;52.416;13.548;2023-07-24T08:09:42;1.58;;;1.05;;
68593;SDS011;55563;52.416;13.548;2023-07-24T08:11:42;1.02;;;0.93;;
68593;SDS011;55563;52.416;13.548;2023-07-24T08:13:43;2.15;;;1.42;;
68593;SDS011;55563;52.416;13.548;2023-07-24T08:15:44;1.40;;;1.13;;
68593;SDS011;55563;52.416;13.548;2023-07-24T08:17:44;1.30;;;1.20;;
68593;SDS011;55563;52.416;13.548;2023-07-24T08:19:45;1.42;;;1.17;;
68593;SDS011;55563;52.416;13.548;2023-07-24T08:21:46;1.00;;;1.00;;
68593;SDS011;55563;52.416;13.548;2023-07-24T08:23:47;1.27;;;1.17;;
68593;SDS011;55563;52.416;13.548;2023-07-24T08:25:55;1.20;;;1.10;;
68593;SDS011;55563;52.416;13.548;2023-07-24T08:27:56;1.23;;;1.13;;
68593;SDS011;55563;52.416;13.548;2023-07-24T08:29:56;0.98;;;0.93;;
68593;SDS011;55563;52.416;13.548;2023-07-24T08:31:57;1.30;;;1.20;;
68593;SDS011;55563;52.416;13.548;2023-07-24T08:33:58;1.33;;;1.23;;
68593;SDS011;55563;52.416;13.548;2023-07-24T08:35:59;1.20;;;1.10;;
68593;SDS011;55563;52.416;13.548;2023-07-24T08:38:02;1.02;;;0.95;;
68593;SDS011;55563;52.416;13.548;2023-07-24T08:40:03;1.23;;;1.13;;
68593;SDS011;55563;52.416;13.548;2023-07-24T08:42:08;1.85;;;1.40;;
68593;SDS011;55563;52.416;13.548;2023-07-24T08:44:10;1.15;;;1.10;;
68593;SDS011;55563;52.416;13.548;2023-07-24T08:46:11;1.02;;;0.93;;
68593;SDS011;55563;52.416;13.548;2023-07-24T08:48:12;0.95;;;0.90;;
68593;SDS011;55563;52.416;13.548;2023-07-24T08:50:13;1.23;;;1.13;;
68593;SDS011;55563;52.416;13.548;2023-07-24T08:52:15;1.92;;;1.10;;
68593;SDS011;55563;52.416;13.548;2023-07-24T08:54:16;1.05;;;0.98;;
68593;SDS011;55563;52.416;13.548;2023-07-24T08:56:19;1.13;;;1.02;;
68593;SDS011;55563;52.416;13.548;2023-07-24T08:58:19;1.33;;;0.90;;
68593;SDS011;55563;52.416;13.548;2023-07-24T09:00:20;1.30;;;0.98;;
68593;SDS011;55563;52.416;13.548;2023-07-24T09:02:21;1.58;;;1.10;;
68593;SDS011;55563;52.416;13.548;2023-07-24T09:04:21;1.25;;;1.15;;
68593;SDS011;55563;52.416;13.548;2023-07-24T09:06:22;0.85;;;0.85;;
68593;SDS011;55563;52.416;13.548;2023-07-24T09:08:39;1.63;;;1.15;;
68593;SDS011;55563;52.416;13.548;2023-07-24T09:10:42;1.50;;;1.02;;
68593;SDS011;55563;52.416;13.548;2023-07-24T09:12:43;1.70;;;1.23;;
68593;SDS011;55563;52.416;13.548;2023-07-24T09:14:44;1.13;;;1.02;;
68593;SDS011;55563;52.416;13.548;2023-07-24T09:16:46;1.33;;;1.20;;
68593;SDS011;55563;52.416;13.548;2023-07-24T09:18:46;0.93;;;0.93;;
68593;SDS011;55563;52.416;13.548;2023-07-24T09:20:47;1.45;;;1.23;;
68593;SDS011;55563;52.416;13.548;2023-07-24T09:22:49;1.13;;;1.02;;
68593;SDS011;55563;52.416;13.548;2023-07-24T09:24:52;1.83;;;1.10;;
68593;SDS011;55563;52.416;13.548;2023-07-24T09:26:53;1.00;;;0.90;;
68593;SDS011;55563;52.416;13.548;2023-07-24T09:28:54;1.30;;;1.20;;
68593;SDS011;55563;52.416;13.548;2023-07-24T09:30:56;1.02;;;0.93;;
68593;SDS011;55563;52.416;13.548;2023-07-24T09:32:58;1.13;;;0.98;;
68593;SDS011;55563;52.416;13.548;2023-07-24T09:34:59;1.25;;;1.13;;
68593;SDS011;55563;52.416;13.548;2023-07-24T09:37:00;1.30;;;1.05;;
68593;SDS011;55563;52.416;13.548;2023-07-24T09:39:00;1.13;;;1.02;;
68593;SDS011;55563;52.416;13.548;2023-07-24T09:41:03;1.48;;;1.00;;
68593;SDS011;55563;52.416;13.548;2023-07-24T09:43:21;1.48;;;1.38;;
68593;SDS011;55563;52.416;13.548;2023-07-24T09:45:23;1.23;;;1.13;;
68593;SDS011;55563;52.416;13.548;2023-07-24T09:47:26;1.33;;;1.20;;
68593;SDS011;55563;52.416;13.548;2023-07-24T09:49:27;1.23;;;1.13;;
68593;SDS011;55563;52.416;13.548;2023-07-24T09:51:28;1.15;;;1.00;;
68593;SDS011;55563;52.416;13.548;2023-07-24T09:55:44;1.30;;;1.20;;
68593;SDS011;55563;52.416;13.548;2023-07-24T09:57:51;1.33;;;1.20;;
68593;SDS011;55563;52.416;13.548;2023-07-24T09:59:54;2.25;;;1.10;;
68593;SDS011;55563;52.416;13.548;2023-07-24T10:01:57;1.38;;;1.27;;
68593;SDS011;55563;52.416;13.548;2023-07-24T10:03:58;2.47;;;1.42;;
68593;SDS011;55563;52.416;13.548;2023-07-24T10:05:59;1.48;;;1.02;;
68593;SDS011;55563;52.416;13.548;2023-07-24T10:08:00;1.45;;;1.20;;
68593;SDS011;55563;52.416;13.548;2023-07-24T10:10:02;1.60;;;1.50;;
68593;SDS011;55563;52.416;13.548;2023-07-24T10:12:02;2.03;;;1.20;;
68593;SDS011;55563;52.416;13.548;2023-07-24T10:14:03;1.33;;;1.20;;
68593;SDS011;55563;52.416;13.548;2023-07-24T10:16:04;2.13;;;1.35;;
68593;SDS011;55563;52.416;13.548;2023-07-24T10:18:07;1.33;;;1.23;;
68593;SDS011;55563;52.416;13.548;2023-07-24T10:20:09;1.63;;;1.35;;
68593;SDS011;55563;52.416;13.548;2023-07-24T10:22:18;1.83;;;1.38;;
68593;SDS011;55563;52.416;13.548;2023-07-24T10:24:20;1.65;;;1.45;;
68593;SDS011;55563;52.416;13.548;2023-07-24T10:26:30;1.60;;;1.35;;
68593;SDS011;55563;52.416;13.548;2023-07-24T10:28:31;1.70;;;1.60;;
68593;SDS011;55563;52.416;13.548;2023-07-24T10:30:34;1.70;;;1.52;;
68593;SDS011;55563;52.416;13.548;2023-07-24T10:32:44;2.88;;;1.60;;
68593;SDS011;55563;52.416;13.548;2023-07-24T10:34:55;2.47;;;1.52;;
68593;SDS011;55563;52.416;13.548;2023-07-24T10:37:02;2.03;;;1.50;;
68593;SDS011;55563;52.416;13.548;2023-07-24T10:39:12;1.90;;;1.33;;
68593;SDS011;55563;52.416;13.548;2023-07-24T10:41:14;2.40;;;1.42;;
68593;SDS011;55563;52.416;13.548;2023-07-24T10:43:18;1.40;;;1.30;;
68593;SDS011;55563;52.416;13.548;2023-07-24T10:45:20;2.05;;;1.42;;
68593;SDS011;55563;52.416;13.548;2023-07-24T10:47:21;2.10;;;1.60;;
68593;SDS011;55563;52.416;13.548;2023-07-24T10:49:22;2.03;;;1.60;;
68593;SDS011;55563;52.416;13.548;2023-07-24T10:51:22;1.85;;;1.33;;
68593;SDS011;55563;52.416;13.548;2023-07-24T10:53:23;2.13;;;1.83;;
68593;SDS011;55563;52.416;13.548;2023-07-24T10:55:24;1.83;;;1.55;;
68593;SDS011;55563;52.416;13.548;2023-07-24T10:57:26;2.40;;;1.90;;
68593;SDS011;55563;52.416;13.548;2023-07-24T10:59:42;2.22;;;1.52;;
68593;SDS011;55563;52.416;13.548;2023-07-24T11:01:43;2.53;;;1.52;;
68593;SDS011;55563;52.416;13.548;2023-07-24T11:03:44;1.98;;;1.50;;
68593;SDS011;55563;52.416;13.548;2023-07-24T11:05:45;2.00;;;1.60;;
68593;SDS011;55563;52.416;13.548;2023-07-24T11:07:47;2.97;;;1.70;;
68593;SDS011;55563;52.416;13.548;2023-07-24T11:09:51;3.38;;;1.73;;
68593;SDS011;55563;52.416;13.548;2023-07-24T11:11:54;2.13;;;1.67;;
68593;SDS011;55563;52.416;13.548;2023-07-24T11:13:55;2.08;;;1.80;;
68593;SDS011;55563;52.416;13.548;2023-07-24T11:15:56;2.25;;;1.73;;
68593;SDS011;55563;52.416;13.548;2023-07-24T11:17:56;1.90;;;1.65;;
68593;SDS011;55563;52.416;13.548;2023-07-24T11:20:05;2.55;;;2.10;;
68593;SDS011;55563;52.416;13.548;2023-07-24T11:22:07;1.88;;;1.65;;
68593;SDS011;55563;52.416;13.548;2023-07-24T11:24:08;2.88;;;1.70;;
68593;SDS011;55563;52.416;13.548;2023-07-24T11:26:10;2.50;;;1.73;;
68593;SDS011;55563;52.416;13.548;2023-07-24T11:28:12;3.78;;;1.65;;
68593;SDS011;55563;52.416;13.548;2023-07-24T11:30:18;2.28;;;1.75;;
68593;SDS011;55563;52.416;13.548;2023-07-24T11:32:20;2.13;;;1.83;;
68593;SDS011;55563;52.416;13.548;2023-07-24T11:34:22;2.25;;;2.05;;
68593;SDS011;55563;52.416;13.548;2023-07-24T11:36:23;2.30;;;1.70;;
68593;SDS011;55563;52.416;13.548;2023-07-24T11:38:24;2.40;;;1.77;;
68593;SDS011;55563;52.416;13.548;2023-07-24T11:40:40;2.42;;;2.03;;
68593;SDS011;55563;52.416;13.548;2023-07-24T11:42:44;2.72;;;1.52;;
68593;SDS011;55563;52.416;13.548;2023-07-24T11:44:45;3.50;;;1.77;;
68593;SDS011;55563;52.416;13.548;2023-07-24T11:46:45;3.20;;;1.75;;
68593;SDS011;55563;52.416;13.548;2023-07-24T11:48:47;2.25;;;1.83;;
68593;SDS011;55563;52.416;13.548;2023-07-24T11:50:49;3.08;;;1.85;;
68593;SDS011;55563;52.416;13.548;2023-07-24T11:52:51;2.70;;;1.55;;
68593;SDS011;55563;52.416;13.548;2023-07-24T11:54:56;3.08;;;1.80;;
68593;SDS011;55563;52.416;13.548;2023-07-24T11:57:01;2.72;;;1.88;;
68593;SDS011;55563;52.416;13.548;2023-07-24T11:59:10;1.88;;;1.60;;
68593;SDS011;55563;52.416;13.548;2023-07-24T12:01:12;3.95;;;2.00;;
68593;SDS011;55563;52.416;13.548;2023-07-24T12:03:15;2.70;;;2.00;;
68593;SDS011;55563;52.416;13.548;2023-07-24T12:05:20;4.57;;;2.30;;
68593;SDS011;55563;52.416;13.548;2023-07-24T12:07:23;2.53;;;1.95;;
68593;SDS011;55563;52.416;13.548;2023-07-24T12:09:29;4.03;;;2.05;;
68593;SDS011;55563;52.416;13.548;2023-07-24T12:11:31;3.53;;;2.05;;
68593;SDS011;55563;52.416;13.548;2023-07-24T12:13:32;2.05;;;1.77;;
68593;SDS011;55563;52.416;13.548;2023-07-24T12:15:32;3.58;;;2.13;;
68593;SDS011;55563;52.416;13.548;2023-07-24T12:17:35;5.65;;;2.22;;
68593;SDS011;55563;52.416;13.548;2023-07-24T12:19:36;8.20;;;2.08;;
68593;SDS011;55563;52.416;13.548;2023-07-24T12:21:37;6.55;;;2.13;;
68593;SDS011;55563;52.416;13.548;2023-07-24T12:23:38;4.22;;;2.17;;
68593;SDS011;55563;52.416;13.548;2023-07-24T12:25:39;2.70;;;1.90;;
68593;SDS011;55563;52.416;13.548;2023-07-24T12:27:39;2.53;;;1.58;;
68593;SDS011;55563;52.416;13.548;2023-07-24T12:29:41;2.75;;;1.75;;
68593;SDS011;55563;52.416;13.548;2023-07-24T12:31:42;2.33;;;2.13;;
68593;SDS011;55563;52.416;13.548;2023-07-24T12:33:43;3.03;;;1.75;;
68593;SDS011;55563;52.416;13.548;2023-07-24T12:35:43;3.33;;;1.88;;
68593;SDS011;55563;52.416;13.548;2023-07-24T12:37:44;3.95;;;2.35;;
68593;SDS011;55563;52.416;13.548;2023-07-24T12:39:46;2.63;;;1.90;;
68593;SDS011;55563;52.416;13.548;2023-07-24T12:41:48;3.42;;;2.30;;
68593;SDS011;55563;52.416;13.548;2023-07-24T12:43:48;3.63;;;1.92;;
68593;SDS011;55563;52.416;13.548;2023-07-24T12:45:49;3.50;;;2.17;;
68593;SDS011;55563;52.416;13.548;2023-07-24T12:47:50;2.83;;;2.20;;
68593;SDS011;55563;52.416;13.548;2023-07-24T12:49:50;3.00;;;2.10;;
68593;SDS011;55563;52.416;13.548;2023-07-24T12:51:52;2.47;;;1.98;;
68593;SDS011;55563;52.416;13.548;2023-07-24T12:53:53;4.97;;;2.13;;
68593;SDS011;55563;52.416;13.548;2023-07-24T12:55:54;3.28;;;2.35;;
68593;SDS011;55563;52.416;13.548;2023-07-24T12:57:55;2.60;;;2.05;;
68593;SDS011;55563;52.416;13.548;2023-07-24T12:59:56;6.65;;;2.45;;
68593;SDS011;55563;52.416;13.548;2023-07-24T13:01:57;2.15;;;1.73;;
68593;SDS011;55563;52.416;13.548;2023-07-24T13:03:58;2.13;;;1.75;;
68593;SDS011;55563;52.416;13.548;2023-07-24T13:05:58;3.15;;;2.10;;
68593;SDS011;55563;52.416;13.548;2023-07-24T13:08:00;2.92;;;2.13;;
68593;SDS011;55563;52.416;13.548;2023-07-24T13:10:01;2.45;;;1.90;;
68593;SDS011;55563;52.416;13.548;2023-07-24T13:12:02;3.75;;;1.70;;
68593;SDS011;55563;52.416;13.548;2023-07-24T13:14:03;1.95;;;1.75;;
68593;SDS011;55563;52.416;13.548;2023-07-24T13:16:04;3.42;;;1.80;;
68593;SDS011;55563;52.416;13.548;2023-07-24T13:18:04;1.90;;;1.60;;
68593;SDS011;55563;52.416;13.548;2023-07-24T13:20:05;1.83;;;1.60;;
68593;SDS011;55563;52.416;13.548;2023-07-24T13:22:06;4.03;;;1.63;;
68593;SDS011;55563;52.416;13.548;2023-07-24T13:24:07;2.15;;;1.52;;
68593;SDS011;55563;52.416;13.548;2023-07-24T13:26:08;2.70;;;1.80;;
68593;SDS011;55563;52.416;13.548;2023-07-24T13:28:10;1.80;;;1.52;;